sensor_id;sensor_type;location;lat;lon;timestamp;P1;durP1;ratioP1;P2;durP2;ratioP2
12141;SDS011;6134;59.284;18.022;2022-12-01T00:01:36;6.20;;;5.10;;
12141;SDS011;6134;59.284;18.022;2022-12-01T00:04:04;5.30;;;4.80;;
12141;SDS011;6134;59.284;18.022;2022-12-01T00:06:33;6.60;;;5.50;;
12141;SDS011;6134;59.284;18.022;2022-12-01T00:09:02;8.52;;;6.05;;
12141;SDS011;6134;59.284;18.022;2022-12-01T00:11:49;5.80;;;5.03;;
12141;SDS011;6134;59.284;18.022;2022-12-01T00:14:18;6.53;;;5.28;;
12141;SDS011;6134;59.284;18.022;2022-12-01T00:16:47;6.35;;;4.68;;
12141;SDS011;6134;59.284;18.022;2022-12-01T00:19:16;5.47;;;4.72;;
12141;SDS011;6134;59.284;18.022;2022-12-01T00:21:44;5.97;;;5.03;;
12141;SDS011;6134;59.284;18.022;2022-12-01T00:24:13;5.45;;;4.88;;
12141;SDS011;6134;59.284;18.022;2022-12-01T00:26:42;7.03;;;4.70;;
12141;SDS011;6134;59.284;18.022;2022-12-01T00:29:12;6.60;;;4.53;;
12141;SDS011;6134;59.284;18.022;2022-12-01T00:31:40;5.88;;;4.78;;
12141;SDS011;6134;59.284;18.022;2022-12-01T00:34:11;6.22;;;5.28;;
12141;SDS011;6134;59.284;18.022;2022-12-01T00:36:46;6.38;;;5.57;;
12141;SDS011;6134;59.284;18.022;2022-12-01T00:39:14;8.20;;;5.65;;
12141;SDS011;6134;59.284;18.022;2022-12-01T00:41:43;6.68;;;5.63;;
12141;SDS011;6134;59.284;18.022;2022-12-01T00:44:13;7.70;;;5.60;;
12141;SDS011;6134;59.284;18.022;2022-12-01T00:46:42;9.77;;;6.45;;
12141;SDS011;6134;59.284;18.022;2022-12-01T00:49:11;8.30;;;6.45;;
12141;SDS011;6134;59.284;18.022;2022-12-01T00:51:40;8.25;;;5.80;;
12141;SDS011;6134;59.284;18.022;2022-12-01T00:54:09;7.85;;;6.05;;
12141;SDS011;6134;59.284;18.022;2022-12-01T00:56:37;9.00;;;6.38;;
12141;SDS011;6134;59.284;18.022;2022-12-01T00:59:06;9.07;;;6.43;;
12141;SDS011;6134;59.284;18.022;2022-12-01T01:01:37;7.85;;;5.93;;
12141;SDS011;6134;59.284;18.022;2022-12-01T01:04:05;7.07;;;6.05;;
12141;SDS011;6134;59.284;18.022;2022-12-01T01:06:34;6.68;;;5.47;;
12141;SDS011;6134;59.284;18.022;2022-12-01T01:09:03;7.85;;;5.93;;
12141;SDS011;6134;59.284;18.022;2022-12-01T01:11:31;6.63;;;5.93;;
12141;SDS011;6134;59.284;18.022;2022-12-01T01:14:00;7.72;;;6.30;;
12141;SDS011;6134;59.284;18.022;2022-12-01T01:16:29;6.53;;;5.70;;
12141;SDS011;6134;59.284;18.022;2022-12-01T01:18:59;6.80;;;5.50;;
12141;SDS011;6134;59.284;18.022;2022-12-01T01:21:28;8.10;;;5.85;;
12141;SDS011;6134;59.284;18.022;2022-12-01T01:23:56;6.65;;;5.55;;
12141;SDS011;6134;59.284;18.022;2022-12-01T01:26:26;6.03;;;5.28;;
12141;SDS011;6134;59.284;18.022;2022-12-01T01:28:56;5.93;;;5.15;;
12141;SDS011;6134;59.284;18.022;2022-12-01T01:31:25;7.40;;;5.65;;
12141;SDS011;6134;59.284;18.022;2022-12-01T01:33:54;8.52;;;5.40;;
12141;SDS011;6134;59.284;18.022;2022-12-01T01:36:24;5.05;;;4.50;;
12141;SDS011;6134;59.284;18.022;2022-12-01T01:38:54;5.35;;;4.70;;
12141;SDS011;6134;59.284;18.022;2022-12-01T01:41:22;4.15;;;3.75;;
12141;SDS011;6134;59.284;18.022;2022-12-01T01:43:52;5.82;;;4.90;;
12141;SDS011;6134;59.284;18.022;2022-12-01T01:46:23;5.00;;;4.50;;
12141;SDS011;6134;59.284;18.022;2022-12-01T01:48:52;5.75;;;4.30;;
12141;SDS011;6134;59.284;18.022;2022-12-01T01:51:25;4.93;;;4.13;;
12141;SDS011;6134;59.284;18.022;2022-12-01T01:53:57;5.88;;;4.75;;
12141;SDS011;6134;59.284;18.022;2022-12-01T01:56:28;6.05;;;4.57;;
12141;SDS011;6134;59.284;18.022;2022-12-01T01:58:57;4.68;;;4.22;;
12141;SDS011;6134;59.284;18.022;2022-12-01T02:01:26;6.43;;;4.80;;
12141;SDS011;6134;59.284;18.022;2022-12-01T02:03:55;5.30;;;4.80;;
12141;SDS011;6134;59.284;18.022;2022-12-01T02:06:23;5.28;;;4.75;;
12141;SDS011;6134;59.284;18.022;2022-12-01T02:08:52;7.15;;;5.03;;
12141;SDS011;6134;59.284;18.022;2022-12-01T02:11:40;4.82;;;4.32;;
12141;SDS011;6134;59.284;18.022;2022-12-01T02:14:22;5.20;;;4.40;;
12141;SDS011;6134;59.284;18.022;2022-12-01T02:16:56;6.05;;;4.55;;
12141;SDS011;6134;59.284;18.022;2022-12-01T02:19:40;5.22;;;4.15;;
12141;SDS011;6134;59.284;18.022;2022-12-01T02:22:15;5.13;;;4.63;;
12141;SDS011;6134;59.284;18.022;2022-12-01T02:24:52;5.93;;;4.15;;
12141;SDS011;6134;59.284;18.022;2022-12-01T02:27:27;5.43;;;4.50;;
12141;SDS011;6134;59.284;18.022;2022-12-01T02:30:03;5.63;;;4.57;;
12141;SDS011;6134;59.284;18.022;2022-12-01T02:32:38;5.60;;;4.28;;
12141;SDS011;6134;59.284;18.022;2022-12-01T02:35:11;6.15;;;4.65;;
12141;SDS011;6134;59.284;18.022;2022-12-01T02:37:43;5.38;;;4.47;;
12141;SDS011;6134;59.284;18.022;2022-12-01T02:40:14;5.35;;;4.10;;
12141;SDS011;6134;59.284;18.022;2022-12-01T02:42:47;5.07;;;4.50;;
12141;SDS011;6134;59.284;18.022;2022-12-01T02:45:20;4.82;;;4.22;;
12141;SDS011;6134;59.284;18.022;2022-12-01T02:47:51;4.80;;;4.20;;
12141;SDS011;6134;59.284;18.022;2022-12-01T02:50:21;5.47;;;4.35;;
12141;SDS011;6134;59.284;18.022;2022-12-01T02:52:51;4.07;;;3.67;;
12141;SDS011;6134;59.284;18.022;2022-12-01T02:55:20;4.32;;;3.67;;
12141;SDS011;6134;59.284;18.022;2022-12-01T02:57:49;4.85;;;3.65;;
12141;SDS011;6134;59.284;18.022;2022-12-01T03:00:18;5.47;;;3.70;;
12141;SDS011;6134;59.284;18.022;2022-12-01T03:02:52;4.68;;;3.67;;
12141;SDS011;6134;59.284;18.022;2022-12-01T03:05:27;4.47;;;3.80;;
12141;SDS011;6134;59.284;18.022;2022-12-01T03:08:00;4.88;;;4.03;;
12141;SDS011;6134;59.284;18.022;2022-12-01T03:10:34;4.88;;;3.72;;
12141;SDS011;6134;59.284;18.022;2022-12-01T03:13:06;4.25;;;3.60;;
12141;SDS011;6134;59.284;18.022;2022-12-01T03:15:37;4.07;;;3.60;;
12141;SDS011;6134;59.284;18.022;2022-12-01T03:18:15;4.25;;;3.70;;
12141;SDS011;6134;59.284;18.022;2022-12-01T03:20:45;4.68;;;3.50;;
12141;SDS011;6134;59.284;18.022;2022-12-01T03:23:16;4.85;;;3.53;;
12141;SDS011;6134;59.284;18.022;2022-12-01T03:25:46;4.10;;;3.70;;
12141;SDS011;6134;59.284;18.022;2022-12-01T03:28:17;3.90;;;3.55;;
12141;SDS011;6134;59.284;18.022;2022-12-01T03:30:49;3.80;;;3.40;;
12141;SDS011;6134;59.284;18.022;2022-12-01T03:33:22;4.15;;;3.75;;
12141;SDS011;6134;59.284;18.022;2022-12-01T03:35:53;5.80;;;3.90;;
12141;SDS011;6134;59.284;18.022;2022-12-01T03:38:23;3.95;;;3.55;;
12141;SDS011;6134;59.284;18.022;2022-12-01T03:40:53;5.70;;;3.70;;
12141;SDS011;6134;59.284;18.022;2022-12-01T03:43:25;4.90;;;3.58;;
12141;SDS011;6134;59.284;18.022;2022-12-01T03:45:55;5.72;;;3.90;;
12141;SDS011;6134;59.284;18.022;2022-12-01T03:48:28;4.55;;;4.10;;
12141;SDS011;6134;59.284;18.022;2022-12-01T03:51:01;4.43;;;3.90;;
12141;SDS011;6134;59.284;18.022;2022-12-01T03:53:32;4.10;;;3.70;;
12141;SDS011;6134;59.284;18.022;2022-12-01T03:56:03;4.10;;;3.70;;
12141;SDS011;6134;59.284;18.022;2022-12-01T03:58:34;4.47;;;3.70;;
12141;SDS011;6134;59.284;18.022;2022-12-01T04:01:05;4.35;;;3.88;;
12141;SDS011;6134;59.284;18.022;2022-12-01T04:03:36;4.45;;;3.90;;
12141;SDS011;6134;59.284;18.022;2022-12-01T04:06:05;4.35;;;3.95;;
12141;SDS011;6134;59.284;18.022;2022-12-01T04:08:33;4.03;;;3.63;;
12141;SDS011;6134;59.284;18.022;2022-12-01T04:11:03;3.70;;;3.28;;
12141;SDS011;6134;59.284;18.022;2022-12-01T04:13:57;4.38;;;3.88;;
12141;SDS011;6134;59.284;18.022;2022-12-01T04:16:25;3.50;;;3.17;;
12141;SDS011;6134;59.284;18.022;2022-12-01T04:18:55;4.20;;;3.78;;
12141;SDS011;6134;59.284;18.022;2022-12-01T04:21:24;4.60;;;3.45;;
12141;SDS011;6134;59.284;18.022;2022-12-01T04:23:52;3.67;;;3.03;;
12141;SDS011;6134;59.284;18.022;2022-12-01T04:26:28;3.50;;;3.20;;
12141;SDS011;6134;59.284;18.022;2022-12-01T04:28:57;3.90;;;3.50;;
12141;SDS011;6134;59.284;18.022;2022-12-01T04:31:26;3.90;;;3.28;;
12141;SDS011;6134;59.284;18.022;2022-12-01T04:33:56;3.42;;;3.13;;
12141;SDS011;6134;59.284;18.022;2022-12-01T04:36:25;6.38;;;3.28;;
12141;SDS011;6134;59.284;18.022;2022-12-01T04:38:54;4.95;;;3.58;;
12141;SDS011;6134;59.284;18.022;2022-12-01T04:41:23;4.95;;;3.67;;
12141;SDS011;6134;59.284;18.022;2022-12-01T04:43:52;4.28;;;3.58;;
12141;SDS011;6134;59.284;18.022;2022-12-01T04:46:21;3.53;;;3.22;;
12141;SDS011;6134;59.284;18.022;2022-12-01T04:48:49;4.63;;;3.63;;
12141;SDS011;6134;59.284;18.022;2022-12-01T04:51:20;4.78;;;3.53;;
12141;SDS011;6134;59.284;18.022;2022-12-01T04:53:48;3.85;;;3.45;;
12141;SDS011;6134;59.284;18.022;2022-12-01T04:56:17;4.07;;;3.58;;
12141;SDS011;6134;59.284;18.022;2022-12-01T04:58:46;4.32;;;3.78;;
12141;SDS011;6134;59.284;18.022;2022-12-01T05:01:16;6.38;;;4.00;;
12141;SDS011;6134;59.284;18.022;2022-12-01T05:03:46;4.72;;;3.63;;
12141;SDS011;6134;59.284;18.022;2022-12-01T05:06:16;4.30;;;3.75;;
12141;SDS011;6134;59.284;18.022;2022-12-01T05:08:46;5.85;;;3.83;;
12141;SDS011;6134;59.284;18.022;2022-12-01T05:11:15;4.13;;;3.65;;
12141;SDS011;6134;59.284;18.022;2022-12-01T05:13:45;4.28;;;3.85;;
12141;SDS011;6134;59.284;18.022;2022-12-01T05:16:15;4.13;;;3.72;;
12141;SDS011;6134;59.284;18.022;2022-12-01T05:18:46;5.00;;;4.05;;
12141;SDS011;6134;59.284;18.022;2022-12-01T05:21:16;3.88;;;3.50;;
12141;SDS011;6134;59.284;18.022;2022-12-01T05:23:44;4.10;;;3.70;;
12141;SDS011;6134;59.284;18.022;2022-12-01T05:26:14;4.38;;;3.70;;
12141;SDS011;6134;59.284;18.022;2022-12-01T05:28:42;3.90;;;3.20;;
12141;SDS011;6134;59.284;18.022;2022-12-01T05:31:11;4.07;;;3.45;;
12141;SDS011;6134;59.284;18.022;2022-12-01T05:33:40;3.65;;;3.15;;
12141;SDS011;6134;59.284;18.022;2022-12-01T05:36:08;4.30;;;3.72;;
12141;SDS011;6134;59.284;18.022;2022-12-01T05:38:37;4.38;;;3.85;;
12141;SDS011;6134;59.284;18.022;2022-12-01T05:41:06;4.40;;;3.75;;
12141;SDS011;6134;59.284;18.022;2022-12-01T05:43:36;3.90;;;3.50;;
12141;SDS011;6134;59.284;18.022;2022-12-01T05:46:04;4.63;;;3.47;;
12141;SDS011;6134;59.284;18.022;2022-12-01T05:48:33;5.38;;;4.47;;
12141;SDS011;6134;59.284;18.022;2022-12-01T05:51:06;6.72;;;5.28;;
12141;SDS011;6134;59.284;18.022;2022-12-01T05:53:35;8.35;;;6.13;;
12141;SDS011;6134;59.284;18.022;2022-12-01T05:56:04;7.88;;;6.80;;
12141;SDS011;6134;59.284;18.022;2022-12-01T05:58:33;9.23;;;8.32;;
12141;SDS011;6134;59.284;18.022;2022-12-01T06:01:03;7.68;;;6.32;;
12141;SDS011;6134;59.284;18.022;2022-12-01T06:03:32;5.75;;;5.00;;
12141;SDS011;6134;59.284;18.022;2022-12-01T06:06:01;5.55;;;4.57;;
12141;SDS011;6134;59.284;18.022;2022-12-01T06:08:29;5.90;;;4.85;;
12141;SDS011;6134;59.284;18.022;2022-12-01T06:10:58;5.80;;;4.80;;
12141;SDS011;6134;59.284;18.022;2022-12-01T06:13:27;5.38;;;4.80;;
12141;SDS011;6134;59.284;18.022;2022-12-01T06:15:57;5.18;;;3.88;;
12141;SDS011;6134;59.284;18.022;2022-12-01T06:18:28;6.38;;;4.97;;
12141;SDS011;6134;59.284;18.022;2022-12-01T06:20:57;6.50;;;4.70;;
12141;SDS011;6134;59.284;18.022;2022-12-01T06:23:26;6.30;;;4.70;;
12141;SDS011;6134;59.284;18.022;2022-12-01T06:25:56;6.63;;;4.38;;
12141;SDS011;6134;59.284;18.022;2022-12-01T06:28:25;5.43;;;4.65;;
12141;SDS011;6134;59.284;18.022;2022-12-01T06:30:56;8.13;;;4.30;;
12141;SDS011;6134;59.284;18.022;2022-12-01T06:33:30;6.03;;;4.57;;
12141;SDS011;6134;59.284;18.022;2022-12-01T06:35:59;4.63;;;4.05;;
12141;SDS011;6134;59.284;18.022;2022-12-01T06:38:29;6.55;;;4.45;;
12141;SDS011;6134;59.284;18.022;2022-12-01T06:40:57;5.78;;;4.18;;
12141;SDS011;6134;59.284;18.022;2022-12-01T06:43:26;5.93;;;4.55;;
12141;SDS011;6134;59.284;18.022;2022-12-01T06:45:55;6.65;;;5.13;;
12141;SDS011;6134;59.284;18.022;2022-12-01T06:48:27;6.35;;;5.20;;
12141;SDS011;6134;59.284;18.022;2022-12-01T06:51:00;5.80;;;4.85;;
12141;SDS011;6134;59.284;18.022;2022-12-01T06:53:29;6.65;;;5.88;;
12141;SDS011;6134;59.284;18.022;2022-12-01T06:55:58;8.65;;;6.88;;
12141;SDS011;6134;59.284;18.022;2022-12-01T06:58:27;6.88;;;5.07;;
12141;SDS011;6134;59.284;18.022;2022-12-01T07:00:56;4.88;;;4.07;;
12141;SDS011;6134;59.284;18.022;2022-12-01T07:03:25;5.60;;;4.75;;
12141;SDS011;6134;59.284;18.022;2022-12-01T07:05:54;7.38;;;4.50;;
12141;SDS011;6134;59.284;18.022;2022-12-01T07:08:25;5.57;;;4.65;;
12141;SDS011;6134;59.284;18.022;2022-12-01T07:10:58;8.15;;;6.65;;
12141;SDS011;6134;59.284;18.022;2022-12-01T07:13:27;7.55;;;5.95;;
12141;SDS011;6134;59.284;18.022;2022-12-01T07:15:59;5.30;;;4.55;;
12141;SDS011;6134;59.284;18.022;2022-12-01T07:18:28;7.97;;;4.57;;
12141;SDS011;6134;59.284;18.022;2022-12-01T07:20:58;6.50;;;4.88;;
12141;SDS011;6134;59.284;18.022;2022-12-01T07:23:29;5.60;;;5.00;;
12141;SDS011;6134;59.284;18.022;2022-12-01T07:25:58;4.97;;;3.97;;
12141;SDS011;6134;59.284;18.022;2022-12-01T07:28:27;4.40;;;4.00;;
12141;SDS011;6134;59.284;18.022;2022-12-01T07:30:59;5.05;;;3.97;;
12141;SDS011;6134;59.284;18.022;2022-12-01T07:33:28;3.72;;;3.30;;
12141;SDS011;6134;59.284;18.022;2022-12-01T07:35:57;4.18;;;3.40;;
12141;SDS011;6134;59.284;18.022;2022-12-01T07:38:26;5.35;;;4.05;;
12141;SDS011;6134;59.284;18.022;2022-12-01T07:41:01;5.43;;;3.88;;
12141;SDS011;6134;59.284;18.022;2022-12-01T07:43:30;5.75;;;4.00;;
12141;SDS011;6134;59.284;18.022;2022-12-01T07:46:06;4.80;;;3.80;;
12141;SDS011;6134;59.284;18.022;2022-12-01T07:48:35;4.88;;;4.30;;
12141;SDS011;6134;59.284;18.022;2022-12-01T07:51:04;4.35;;;3.95;;
12141;SDS011;6134;59.284;18.022;2022-12-01T07:53:33;4.18;;;3.70;;
12141;SDS011;6134;59.284;18.022;2022-12-01T07:56:03;4.13;;;3.70;;
12141;SDS011;6134;59.284;18.022;2022-12-01T07:58:34;5.75;;;3.90;;
12141;SDS011;6134;59.284;18.022;2022-12-01T08:01:06;4.30;;;3.88;;
12141;SDS011;6134;59.284;18.022;2022-12-01T08:03:35;5.80;;;3.97;;
12141;SDS011;6134;59.284;18.022;2022-12-01T08:06:04;4.90;;;4.10;;
12141;SDS011;6134;59.284;18.022;2022-12-01T08:08:34;5.03;;;4.50;;
12141;SDS011;6134;59.284;18.022;2022-12-01T08:11:05;6.20;;;4.13;;
12141;SDS011;6134;59.284;18.022;2022-12-01T08:13:34;6.93;;;4.38;;
12141;SDS011;6134;59.284;18.022;2022-12-01T08:16:03;5.78;;;4.35;;
12141;SDS011;6134;59.284;18.022;2022-12-01T08:18:32;4.43;;;3.83;;
12141;SDS011;6134;59.284;18.022;2022-12-01T08:21:01;4.78;;;4.28;;
12141;SDS011;6134;59.284;18.022;2022-12-01T08:23:30;4.60;;;3.88;;
12141;SDS011;6134;59.284;18.022;2022-12-01T08:25:59;7.20;;;3.92;;
12141;SDS011;6134;59.284;18.022;2022-12-01T08:28:31;4.93;;;4.35;;
12141;SDS011;6134;59.284;18.022;2022-12-01T08:31:05;6.07;;;4.10;;
12141;SDS011;6134;59.284;18.022;2022-12-01T08:33:34;6.50;;;5.10;;
12141;SDS011;6134;59.284;18.022;2022-12-01T08:36:03;5.55;;;4.18;;
12141;SDS011;6134;59.284;18.022;2022-12-01T08:38:32;5.82;;;4.20;;
12141;SDS011;6134;59.284;18.022;2022-12-01T08:41:01;6.75;;;4.60;;
12141;SDS011;6134;59.284;18.022;2022-12-01T08:43:32;5.47;;;4.63;;
12141;SDS011;6134;59.284;18.022;2022-12-01T08:46:25;5.53;;;4.70;;
12141;SDS011;6134;59.284;18.022;2022-12-01T08:48:54;6.20;;;4.85;;
12141;SDS011;6134;59.284;18.022;2022-12-01T08:51:24;5.65;;;4.60;;
12141;SDS011;6134;59.284;18.022;2022-12-01T08:53:53;6.47;;;5.45;;
12141;SDS011;6134;59.284;18.022;2022-12-01T08:56:23;7.18;;;5.10;;
12141;SDS011;6134;59.284;18.022;2022-12-01T08:58:54;6.82;;;5.25;;
12141;SDS011;6134;59.284;18.022;2022-12-01T09:01:23;7.45;;;4.68;;
12141;SDS011;6134;59.284;18.022;2022-12-01T09:03:52;5.88;;;4.43;;
12141;SDS011;6134;59.284;18.022;2022-12-01T09:06:33;6.35;;;4.38;;
12141;SDS011;6134;59.284;18.022;2022-12-01T09:09:02;7.00;;;4.57;;
12141;SDS011;6134;59.284;18.022;2022-12-01T09:11:31;6.53;;;4.78;;
12141;SDS011;6134;59.284;18.022;2022-12-01T09:14:01;6.57;;;4.55;;
12141;SDS011;6134;59.284;18.022;2022-12-01T09:16:30;5.70;;;4.95;;
12141;SDS011;6134;59.284;18.022;2022-12-01T09:18:58;6.43;;;4.65;;
12141;SDS011;6134;59.284;18.022;2022-12-01T09:21:28;7.10;;;4.90;;
12141;SDS011;6134;59.284;18.022;2022-12-01T09:23:57;5.55;;;4.38;;
12141;SDS011;6134;59.284;18.022;2022-12-01T09:26:26;3.65;;;3.30;;
12141;SDS011;6134;59.284;18.022;2022-12-01T09:28:56;4.03;;;3.58;;
12141;SDS011;6134;59.284;18.022;2022-12-01T09:31:26;4.88;;;4.10;;
12141;SDS011;6134;59.284;18.022;2022-12-01T09:33:55;4.32;;;3.92;;
12141;SDS011;6134;59.284;18.022;2022-12-01T09:36:24;3.45;;;3.15;;
12141;SDS011;6134;59.284;18.022;2022-12-01T09:38:53;4.75;;;4.00;;
12141;SDS011;6134;59.284;18.022;2022-12-01T09:41:23;4.57;;;3.75;;
12141;SDS011;6134;59.284;18.022;2022-12-01T09:43:53;5.15;;;4.22;;
12141;SDS011;6134;59.284;18.022;2022-12-01T09:46:24;4.70;;;3.83;;
12141;SDS011;6134;59.284;18.022;2022-12-01T09:48:56;4.35;;;3.95;;
12141;SDS011;6134;59.284;18.022;2022-12-01T09:51:26;4.80;;;4.30;;
12141;SDS011;6134;59.284;18.022;2022-12-01T09:53:57;4.30;;;3.60;;
12141;SDS011;6134;59.284;18.022;2022-12-01T09:56:26;4.93;;;4.20;;
12141;SDS011;6134;59.284;18.022;2022-12-01T09:58:56;4.90;;;4.10;;
12141;SDS011;6134;59.284;18.022;2022-12-01T10:01:28;5.05;;;3.67;;
12141;SDS011;6134;59.284;18.022;2022-12-01T10:04:01;4.00;;;3.60;;
12141;SDS011;6134;59.284;18.022;2022-12-01T10:06:34;4.63;;;4.20;;
12141;SDS011;6134;59.284;18.022;2022-12-01T10:09:06;4.30;;;3.78;;
12141;SDS011;6134;59.284;18.022;2022-12-01T10:11:40;4.30;;;3.90;;
12141;SDS011;6134;59.284;18.022;2022-12-01T10:14:11;4.70;;;3.72;;
12141;SDS011;6134;59.284;18.022;2022-12-01T10:16:48;5.65;;;4.07;;
12141;SDS011;6134;59.284;18.022;2022-12-01T10:19:23;4.38;;;3.65;;
12141;SDS011;6134;59.284;18.022;2022-12-01T10:21:59;4.13;;;3.65;;
12141;SDS011;6134;59.284;18.022;2022-12-01T10:24:34;4.43;;;3.90;;
12141;SDS011;6134;59.284;18.022;2022-12-01T10:27:08;4.28;;;3.88;;
12141;SDS011;6134;59.284;18.022;2022-12-01T10:29:44;5.22;;;4.05;;
12141;SDS011;6134;59.284;18.022;2022-12-01T10:32:16;4.20;;;3.80;;
12141;SDS011;6134;59.284;18.022;2022-12-01T10:34:46;4.28;;;3.88;;
12141;SDS011;6134;59.284;18.022;2022-12-01T10:37:15;7.07;;;3.90;;
12141;SDS011;6134;59.284;18.022;2022-12-01T10:39:46;7.32;;;3.72;;
12141;SDS011;6134;59.284;18.022;2022-12-01T10:42:18;5.80;;;4.00;;
12141;SDS011;6134;59.284;18.022;2022-12-01T10:44:47;7.25;;;4.68;;
12141;SDS011;6134;59.284;18.022;2022-12-01T10:47:17;8.80;;;3.92;;
12141;SDS011;6134;59.284;18.022;2022-12-01T10:49:48;7.20;;;4.55;;
12141;SDS011;6134;59.284;18.022;2022-12-01T10:52:29;4.22;;;3.78;;
12141;SDS011;6134;59.284;18.022;2022-12-01T10:54:58;4.10;;;3.65;;
12141;SDS011;6134;59.284;18.022;2022-12-01T10:57:28;5.07;;;4.20;;
12141;SDS011;6134;59.284;18.022;2022-12-01T10:59:59;5.50;;;3.97;;
12141;SDS011;6134;59.284;18.022;2022-12-01T11:02:29;5.97;;;3.70;;
12141;SDS011;6134;59.284;18.022;2022-12-01T11:05:00;6.60;;;4.32;;
12141;SDS011;6134;59.284;18.022;2022-12-01T11:07:31;5.07;;;4.47;;
12141;SDS011;6134;59.284;18.022;2022-12-01T11:10:05;4.90;;;3.80;;
12141;SDS011;6134;59.284;18.022;2022-12-01T11:12:40;4.65;;;3.65;;
12141;SDS011;6134;59.284;18.022;2022-12-01T11:15:16;4.00;;;3.58;;
12141;SDS011;6134;59.284;18.022;2022-12-01T11:17:45;7.03;;;3.45;;
12141;SDS011;6134;59.284;18.022;2022-12-01T11:20:27;3.72;;;3.30;;
12141;SDS011;6134;59.284;18.022;2022-12-01T11:23:25;4.47;;;3.65;;
12141;SDS011;6134;59.284;18.022;2022-12-01T11:25:59;6.10;;;3.60;;
12141;SDS011;6134;59.284;18.022;2022-12-01T11:28:29;5.53;;;3.50;;
12141;SDS011;6134;59.284;18.022;2022-12-01T11:31:00;6.93;;;4.10;;
12141;SDS011;6134;59.284;18.022;2022-12-01T11:33:29;4.20;;;3.80;;
12141;SDS011;6134;59.284;18.022;2022-12-01T11:36:02;5.40;;;4.32;;
12141;SDS011;6134;59.284;18.022;2022-12-01T11:38:31;7.07;;;4.20;;
12141;SDS011;6134;59.284;18.022;2022-12-01T11:41:01;5.57;;;4.50;;
12141;SDS011;6134;59.284;18.022;2022-12-01T11:43:30;5.28;;;4.00;;
12141;SDS011;6134;59.284;18.022;2022-12-01T11:46:01;6.78;;;4.53;;
12141;SDS011;6134;59.284;18.022;2022-12-01T11:48:33;5.95;;;4.93;;
12141;SDS011;6134;59.284;18.022;2022-12-01T11:51:06;4.63;;;3.85;;
12141;SDS011;6134;59.284;18.022;2022-12-01T11:53:35;6.47;;;3.70;;
12141;SDS011;6134;59.284;18.022;2022-12-01T11:56:12;5.82;;;4.40;;
12141;SDS011;6134;59.284;18.022;2022-12-01T11:58:41;4.35;;;3.58;;
12141;SDS011;6134;59.284;18.022;2022-12-01T12:01:12;5.13;;;4.00;;
12141;SDS011;6134;59.284;18.022;2022-12-01T12:03:49;4.40;;;4.00;;
12141;SDS011;6134;59.284;18.022;2022-12-01T12:06:28;4.65;;;4.22;;
12141;SDS011;6134;59.284;18.022;2022-12-01T12:09:15;5.95;;;3.85;;
12141;SDS011;6134;59.284;18.022;2022-12-01T12:11:58;5.18;;;4.13;;
12141;SDS011;6134;59.284;18.022;2022-12-01T12:14:30;5.90;;;4.10;;
12141;SDS011;6134;59.284;18.022;2022-12-01T12:22:53;4.30;;;3.50;;
12141;SDS011;6134;59.284;18.022;2022-12-01T12:25:25;4.93;;;4.20;;
12141;SDS011;6134;59.284;18.022;2022-12-01T12:27:57;4.03;;;3.25;;
12141;SDS011;6134;59.284;18.022;2022-12-01T12:30:35;3.30;;;3.00;;
12141;SDS011;6134;59.284;18.022;2022-12-01T12:33:25;4.03;;;3.13;;
12141;SDS011;6134;59.284;18.022;2022-12-01T12:35:59;4.28;;;2.83;;
12141;SDS011;6134;59.284;18.022;2022-12-01T12:38:39;3.60;;;3.20;;
12141;SDS011;6134;59.284;18.022;2022-12-01T12:41:13;4.30;;;3.22;;
12141;SDS011;6134;59.284;18.022;2022-12-01T12:43:45;4.53;;;3.20;;
12141;SDS011;6134;59.284;18.022;2022-12-01T12:46:19;3.35;;;3.05;;
12141;SDS011;6134;59.284;18.022;2022-12-01T12:48:53;4.22;;;3.67;;
12141;SDS011;6134;59.284;18.022;2022-12-01T12:51:45;3.80;;;3.47;;
12141;SDS011;6134;59.284;18.022;2022-12-01T12:54:21;3.58;;;3.22;;
12141;SDS011;6134;59.284;18.022;2022-12-01T12:56:53;3.42;;;3.13;;
12141;SDS011;6134;59.284;18.022;2022-12-01T12:59:23;4.57;;;4.05;;
12141;SDS011;6134;59.284;18.022;2022-12-01T13:01:54;5.35;;;4.47;;
12141;SDS011;6134;59.284;18.022;2022-12-01T13:04:26;5.35;;;4.00;;
12141;SDS011;6134;59.284;18.022;2022-12-01T13:06:59;4.18;;;3.70;;
12141;SDS011;6134;59.284;18.022;2022-12-01T13:09:32;4.68;;;3.83;;
12141;SDS011;6134;59.284;18.022;2022-12-01T13:12:03;4.05;;;3.60;;
12141;SDS011;6134;59.284;18.022;2022-12-01T13:14:34;4.25;;;3.42;;
12141;SDS011;6134;59.284;18.022;2022-12-01T13:17:06;4.00;;;3.60;;
12141;SDS011;6134;59.284;18.022;2022-12-01T13:19:35;5.82;;;3.78;;
12141;SDS011;6134;59.284;18.022;2022-12-01T13:22:07;4.20;;;3.80;;
12141;SDS011;6134;59.284;18.022;2022-12-01T13:24:39;4.95;;;3.40;;
12141;SDS011;6134;59.284;18.022;2022-12-01T13:27:11;4.85;;;3.95;;
12141;SDS011;6134;59.284;18.022;2022-12-01T13:29:43;4.45;;;3.63;;
12141;SDS011;6134;59.284;18.022;2022-12-01T13:32:24;4.43;;;3.60;;
12141;SDS011;6134;59.284;18.022;2022-12-01T13:34:54;6.82;;;4.18;;
12141;SDS011;6134;59.284;18.022;2022-12-01T13:37:24;4.90;;;3.90;;
12141;SDS011;6134;59.284;18.022;2022-12-01T13:40:04;7.20;;;4.30;;
12141;SDS011;6134;59.284;18.022;2022-12-01T13:42:34;7.13;;;4.55;;
12141;SDS011;6134;59.284;18.022;2022-12-01T13:45:06;7.88;;;4.60;;
12141;SDS011;6134;59.284;18.022;2022-12-01T13:47:39;4.97;;;4.10;;
12141;SDS011;6134;59.284;18.022;2022-12-01T13:53:11;5.32;;;4.22;;
12141;SDS011;6134;59.284;18.022;2022-12-01T13:58:39;7.35;;;3.75;;
12141;SDS011;6134;59.284;18.022;2022-12-01T14:03:57;4.75;;;3.70;;
12141;SDS011;6134;59.284;18.022;2022-12-01T14:06:27;5.90;;;3.72;;
12141;SDS011;6134;59.284;18.022;2022-12-01T14:08:57;5.18;;;3.70;;
12141;SDS011;6134;59.284;18.022;2022-12-01T14:11:26;3.88;;;3.42;;
12141;SDS011;6134;59.284;18.022;2022-12-01T14:13:58;5.72;;;4.25;;
12141;SDS011;6134;59.284;18.022;2022-12-01T14:19:23;4.03;;;3.63;;
12141;SDS011;6134;59.284;18.022;2022-12-01T14:21:53;4.07;;;3.47;;
12141;SDS011;6134;59.284;18.022;2022-12-01T14:24:23;3.88;;;3.40;;
12141;SDS011;6134;59.284;18.022;2022-12-01T14:26:54;4.03;;;3.63;;
12141;SDS011;6134;59.284;18.022;2022-12-01T14:29:31;4.50;;;3.50;;
12141;SDS011;6134;59.284;18.022;2022-12-01T14:34:50;4.30;;;3.50;;
12141;SDS011;6134;59.284;18.022;2022-12-01T14:37:20;4.55;;;3.42;;
12141;SDS011;6134;59.284;18.022;2022-12-01T14:39:51;5.43;;;4.05;;
12141;SDS011;6134;59.284;18.022;2022-12-01T14:42:25;4.55;;;3.85;;
12141;SDS011;6134;59.284;18.022;2022-12-01T14:45:19;3.38;;;3.08;;
12141;SDS011;6134;59.284;18.022;2022-12-01T14:47:50;4.70;;;3.75;;
12141;SDS011;6134;59.284;18.022;2022-12-01T14:50:21;5.22;;;3.78;;
12141;SDS011;6134;59.284;18.022;2022-12-01T14:52:51;6.75;;;3.33;;
12141;SDS011;6134;59.284;18.022;2022-12-01T14:55:21;4.57;;;3.53;;
12141;SDS011;6134;59.284;18.022;2022-12-01T14:57:57;4.85;;;3.25;;
12141;SDS011;6134;59.284;18.022;2022-12-01T15:00:28;5.18;;;3.45;;
12141;SDS011;6134;59.284;18.022;2022-12-01T15:02:58;4.80;;;3.80;;
12141;SDS011;6134;59.284;18.022;2022-12-01T15:05:27;4.45;;;3.75;;
12141;SDS011;6134;59.284;18.022;2022-12-01T15:07:57;3.75;;;3.38;;
12141;SDS011;6134;59.284;18.022;2022-12-01T15:10:50;4.90;;;3.60;;
12141;SDS011;6134;59.284;18.022;2022-12-01T15:13:20;4.43;;;3.60;;
12141;SDS011;6134;59.284;18.022;2022-12-01T15:15:51;5.07;;;3.75;;
12141;SDS011;6134;59.284;18.022;2022-12-01T15:18:21;5.35;;;3.28;;
12141;SDS011;6134;59.284;18.022;2022-12-01T15:20:54;4.72;;;3.70;;
12141;SDS011;6134;59.284;18.022;2022-12-01T15:23:24;4.68;;;4.00;;
12141;SDS011;6134;59.284;18.022;2022-12-01T15:25:52;5.50;;;3.85;;
12141;SDS011;6134;59.284;18.022;2022-12-01T15:28:28;5.95;;;3.97;;
12141;SDS011;6134;59.284;18.022;2022-12-01T15:30:58;9.38;;;6.03;;
12141;SDS011;6134;59.284;18.022;2022-12-01T15:33:28;10.32;;;8.80;;